createdAt,value
2018-03-04T00:02:47.000Z,18.4
2018-03-04T00:12:47.000Z,18.3
2018-03-04T00:22:47.000Z,18.2
2018-03-04T00:32:47.000Z,18
2018-03-04T00:42:47.000Z,18.1
2018-03-04T00:52:47.000Z,18.2
2018-03-04T01:02:47.000Z,18.3
2018-03-04T01:12:47.000Z,18.2
2018-03-04T01:22:47.000Z,18.3
2018-03-04T01:32:47.000Z,18.3
2018-03-04T01:42:47.000Z,18.4
2018-03-04T01:52:47.000Z,18.3
2018-03-04T02:02:48.000Z,18.4
2018-03-04T02:12:47.000Z,16.8
2018-03-04T02:22:47.000Z,15
2018-03-04T02:42:47.000Z,14.1
2018-03-04T02:52:48.000Z,13.3
2018-03-04T03:02:47.000Z,13.1
2018-03-04T03:12:47.000Z,12.9
2018-03-04T03:22:47.000Z,12.7
2018-03-04T03:32:47.000Z,12.5
2018-03-04T03:42:47.000Z,12.3
2018-03-04T03:52:48.000Z,12.4
2018-03-04T04:02:48.000Z,12.3
2018-03-04T04:12:48.000Z,12.2
2018-03-04T04:22:48.000Z,12.2
2018-03-04T04:32:48.000Z,12.1
2018-03-04T04:42:48.000Z,12.1
2018-03-04T04:52:48.000Z,12
2018-03-04T05:02:48.000Z,12
2018-03-04T05:12:48.000Z,12
2018-03-04T05:22:48.000Z,11.8
2018-03-04T05:32:48.000Z,11.8
2018-03-04T05:42:48.000Z,11.6
2018-03-04T05:52:48.000Z,11.9
2018-03-04T06:02:48.000Z,11.6
2018-03-04T06:12:48.000Z,11.6
2018-03-04T06:22:48.000Z,11.6
2018-03-04T06:32:48.000Z,11.5
2018-03-04T06:42:48.000Z,11.5
2018-03-04T06:52:48.000Z,11.5
2018-03-04T07:02:48.000Z,11.4
2018-03-04T07:12:48.000Z,11.6
2018-03-04T07:22:48.000Z,11.5
2018-03-04T07:32:48.000Z,11.5
2018-03-04T07:42:48.000Z,11.5
2018-03-04T07:52:48.000Z,11.5
2018-03-04T08:02:48.000Z,11.6
2018-03-04T08:12:48.000Z,12.1
2018-03-04T08:22:48.000Z,14
2018-03-04T08:32:48.000Z,15
2018-03-04T08:42:48.000Z,15.7
2018-03-04T08:52:48.000Z,16
2018-03-04T09:02:48.000Z,16.2
2018-03-04T09:12:48.000Z,16.4
2018-03-04T09:22:48.000Z,16.6
2018-03-04T09:32:48.000Z,16.7
2018-03-04T09:42:48.000Z,16.8
2018-03-04T09:52:48.000Z,16.8
2018-03-04T10:02:48.000Z,16.9
2018-03-04T10:12:48.000Z,17.3
2018-03-04T10:22:48.000Z,17.3
2018-03-04T10:32:48.000Z,17.4
2018-03-04T10:42:48.000Z,17.4
2018-03-04T10:52:48.000Z,17.5
2018-03-04T11:02:49.000Z,17.7
2018-03-04T11:12:48.000Z,17.8
2018-03-04T11:22:49.000Z,17.6
2018-03-04T11:32:49.000Z,17.8
2018-03-04T11:42:49.000Z,17.8
2018-03-04T11:52:49.000Z,17.9
2018-03-04T12:02:49.000Z,17.7
2018-03-04T12:12:49.000Z,17.9
2018-03-04T12:22:49.000Z,18
2018-03-04T12:32:49.000Z,18
2018-03-04T12:42:49.000Z,18.1
2018-03-04T12:52:49.000Z,18.2
2018-03-04T13:02:49.000Z,18.1
2018-03-04T13:12:49.000Z,18.2
2018-03-04T13:22:49.000Z,18.3
2018-03-04T13:32:49.000Z,18.3
2018-03-04T13:42:49.000Z,18.3
2018-03-04T13:52:49.000Z,18.2
2018-03-04T14:02:49.000Z,18.4
2018-03-04T14:12:49.000Z,18.4
2018-03-04T14:22:49.000Z,18.4
2018-03-04T14:32:49.000Z,18.5
2018-03-04T14:42:49.000Z,18.5
2018-03-04T14:52:49.000Z,18.5
2018-03-04T15:02:49.000Z,18.5
2018-03-04T15:12:49.000Z,18.7
2018-03-04T15:22:49.000Z,18.6
2018-03-04T15:32:49.000Z,18.6
2018-03-04T15:42:49.000Z,18.6
2018-03-04T15:52:49.000Z,18.6
2018-03-04T16:02:49.000Z,18.7
2018-03-04T16:12:49.000Z,18.6
2018-03-04T16:22:49.000Z,18.9
2018-03-04T16:32:49.000Z,18.7
2018-03-04T16:42:50.000Z,18.9
2018-03-04T16:52:49.000Z,18.9
2018-03-04T17:02:50.000Z,18.9
2018-03-04T17:12:49.000Z,19
2018-03-04T17:22:49.000Z,19
2018-03-04T17:32:49.000Z,19
2018-03-04T17:42:49.000Z,19
2018-03-04T17:52:49.000Z,19
2018-03-04T18:02:49.000Z,19.1
2018-03-04T18:12:49.000Z,19
2018-03-04T18:22:50.000Z,19.1
2018-03-04T18:32:50.000Z,19
2018-03-04T18:42:50.000Z,19
2018-03-04T18:52:50.000Z,19.1
2018-03-04T19:02:50.000Z,19.1
2018-03-04T19:12:50.000Z,19.2
2018-03-04T19:22:50.000Z,18.9
2018-03-04T19:32:50.000Z,19
2018-03-04T19:42:50.000Z,19
2018-03-04T19:52:50.000Z,19.1
2018-03-04T20:02:50.000Z,19.3
2018-03-04T20:12:50.000Z,19.3
2018-03-04T20:22:51.000Z,19.2
2018-03-04T20:32:50.000Z,19.3
2018-03-04T20:42:50.000Z,19.2
2018-03-04T20:52:50.000Z,19.3
2018-03-04T21:02:50.000Z,19.3
2018-03-04T21:12:51.000Z,19.2
2018-03-04T21:22:50.000Z,19.2
2018-03-04T21:32:50.000Z,19.2
2018-03-04T21:42:50.000Z,19.3
2018-03-04T21:52:50.000Z,19.3
2018-03-04T22:02:51.000Z,19.1
2018-03-04T22:12:50.000Z,19
2018-03-04T22:22:50.000Z,19
2018-03-04T22:42:50.000Z,18.9
2018-03-04T22:52:50.000Z,18.8
2018-03-04T23:02:53.000Z,18.7
2018-03-04T23:12:50.000Z,18.6
2018-03-04T23:22:50.000Z,17.6
2018-03-04T23:32:50.000Z,17.1
2018-03-04T23:42:50.000Z,16.9
2018-03-04T23:52:50.000Z,16.6
